createdAt,value
2019-05-02T00:03:04.431Z,99.90
2019-05-02T00:08:10.620Z,99.90
2019-05-02T00:13:14.731Z,99.90
2019-05-02T00:18:18.847Z,99.90
2019-05-02T00:23:23.072Z,99.90
2019-05-02T00:28:32.147Z,99.90
2019-05-02T00:33:37.527Z,99.90
2019-05-02T00:38:45.623Z,99.90
2019-05-02T00:43:51.996Z,99.90
2019-05-02T00:48:59.686Z,99.90
2019-05-02T00:54:04.229Z,99.90
2019-05-02T00:59:09.482Z,99.90
2019-05-02T01:04:23.444Z,99.90
2019-05-02T01:09:28.695Z,99.90
2019-05-02T01:14:33.330Z,99.90
2019-05-02T01:19:36.974Z,99.90
2019-05-02T01:24:43.667Z,99.90
2019-05-02T01:30:01.569Z,99.90
2019-05-02T01:35:11.151Z,99.90
2019-05-02T01:40:17.701Z,99.90
2019-05-02T01:45:20.404Z,99.90
2019-05-02T01:50:33.528Z,99.90
2019-05-02T01:55:35.777Z,99.90
2019-05-02T02:00:44.844Z,99.90
2019-05-02T02:05:47.976Z,99.90
2019-05-02T02:10:56.201Z,99.90
2019-05-02T02:16:04.074Z,99.90
2019-05-02T02:21:26.149Z,99.90
2019-05-02T02:26:28.202Z,99.90
2019-05-02T02:31:45.996Z,99.90
2019-05-02T02:36:44.663Z,99.90
2019-05-02T02:41:52.110Z,99.90
2019-05-02T02:46:54.914Z,99.90
2019-05-02T02:52:04.728Z,99.90
2019-05-02T02:57:20.855Z,99.90
2019-05-02T03:02:17.503Z,99.90
2019-05-02T03:07:25.999Z,99.90
2019-05-02T03:12:28.134Z,99.90
2019-05-02T03:17:46.677Z,99.90
2019-05-02T03:22:54.786Z,99.90
2019-05-02T03:28:00.203Z,99.90
2019-05-02T03:33:10.434Z,99.90
2019-05-02T03:38:10.077Z,99.90
2019-05-02T03:43:19.277Z,99.90
2019-05-02T03:48:25.341Z,99.90
2019-05-02T03:53:31.339Z,99.90
2019-05-02T03:58:35.185Z,99.90
2019-05-02T04:03:46.433Z,99.90
2019-05-02T04:08:58.848Z,99.90
2019-05-02T04:13:58.508Z,99.90
2019-05-02T04:19:02.904Z,99.90
2019-05-02T04:24:13.276Z,99.90
2019-05-02T04:29:24.548Z,99.90
2019-05-02T04:34:28.447Z,99.90
2019-05-02T04:39:34.828Z,99.90
2019-05-02T04:45:11.818Z,99.90
2019-05-02T04:49:58.559Z,99.90
2019-05-02T04:55:14.393Z,99.90
2019-05-02T05:00:11.767Z,99.90
2019-05-02T05:05:17.322Z,99.90
2019-05-02T05:10:20.147Z,99.90
2019-05-02T05:15:39.161Z,99.90
2019-05-02T05:20:40.528Z,99.90
2019-05-02T05:25:50.804Z,99.90
2019-05-02T05:30:54.077Z,99.90
2019-05-02T05:35:59.338Z,99.90
2019-05-02T05:41:07.822Z,99.90
2019-05-02T05:46:12.392Z,99.90
2019-05-02T05:51:20.440Z,99.90
2019-05-02T05:56:21.417Z,99.90
2019-05-02T06:01:26.011Z,99.90
2019-05-02T06:06:30.427Z,99.90
2019-05-02T06:11:34.137Z,99.90
2019-05-02T06:16:37.864Z,99.90
2019-05-02T06:21:45.093Z,99.90
2019-05-02T06:26:49.946Z,99.90
2019-05-02T06:32:03.018Z,99.90
2019-05-02T06:37:13.429Z,99.90
2019-05-02T06:42:27.668Z,99.90
2019-05-02T06:47:36.059Z,99.90
2019-05-02T06:52:39.483Z,99.90
2019-05-02T06:57:43.150Z,99.90
2019-05-02T07:02:49.512Z,99.90
2019-05-02T07:07:56.378Z,99.90
2019-05-02T07:13:10.716Z,99.90
2019-05-02T07:18:15.173Z,99.90
2019-05-02T07:23:24.656Z,99.90
2019-05-02T07:28:28.332Z,99.90
2019-05-02T07:33:37.505Z,99.90
2019-05-02T07:38:37.970Z,99.90
2019-05-02T07:43:47.174Z,99.90
2019-05-02T07:48:54.569Z,99.90
2019-05-02T07:54:02.334Z,99.90
2019-05-02T07:59:07.951Z,99.90
2019-05-02T08:04:14.195Z,99.90
2019-05-02T08:09:24.366Z,99.90
2019-05-02T08:14:34.589Z,99.90
2019-05-02T08:19:41.908Z,99.90
2019-05-02T08:24:46.370Z,99.90
2019-05-02T08:29:51.919Z,99.90
2019-05-02T08:34:58.238Z,99.90
2019-05-02T08:40:05.401Z,99.90
2019-05-02T08:45:10.462Z,99.90
2019-05-02T08:50:14.433Z,99.90
2019-05-02T08:55:18.064Z,99.00
2019-05-02T09:00:21.756Z,99.00
2019-05-02T09:05:29.888Z,99.40
2019-05-02T09:10:42.187Z,99.30
2019-05-02T09:15:53.599Z,98.70
2019-05-02T09:20:56.931Z,99.60
2019-05-02T09:26:02.427Z,98.60
2019-05-02T09:31:09.168Z,96.80
2019-05-02T09:36:14.590Z,97.00
2019-05-02T09:41:26.990Z,94.90
2019-05-02T09:46:28.339Z,96.40
2019-05-02T09:51:32.444Z,97.90
2019-05-02T09:56:36.263Z,97.60
2019-05-02T10:01:46.675Z,98.00
2019-05-02T10:06:52.270Z,96.60
2019-05-02T10:11:58.889Z,96.00
2019-05-02T10:17:06.934Z,96.00
2019-05-02T10:22:12.285Z,93.10
2019-05-02T10:27:17.747Z,92.10
2019-05-02T10:32:24.140Z,91.30
2019-05-02T10:37:38.106Z,91.70
2019-05-02T10:42:38.735Z,91.70
2019-05-02T10:47:44.718Z,91.20
2019-05-02T10:52:50.045Z,88.10
2019-05-02T10:57:53.657Z,87.30
2019-05-02T11:03:13.839Z,83.90
2019-05-02T11:08:31.937Z,78.50
2019-05-02T11:13:39.154Z,73.40
2019-05-02T11:18:56.050Z,78.20
2019-05-02T11:24:02.730Z,69.40
2019-05-02T11:29:06.528Z,67.10
2019-05-02T11:34:12.169Z,63.90
2019-05-02T11:39:31.167Z,63.70
2019-05-02T11:44:26.545Z,62.00
2019-05-02T11:49:31.998Z,61.70
2019-05-02T11:54:39.291Z,57.10
2019-05-02T11:59:44.542Z,59.40
2019-05-02T12:04:55.505Z,58.10
2019-05-02T12:10:04.105Z,54.60
2019-05-02T12:15:04.161Z,56.30
2019-05-02T12:20:11.756Z,51.10
2019-05-02T12:25:15.750Z,49.30
2019-05-02T12:30:28.941Z,51.30
2019-05-02T12:35:34.131Z,49.80
2019-05-02T12:40:37.780Z,48.80
2019-05-02T12:45:46.146Z,49.90
2019-05-02T12:50:55.516Z,46.90
2019-05-02T12:56:02.185Z,47.70
2019-05-02T13:01:06.082Z,48.80
2019-05-02T13:06:15.741Z,48.80
2019-05-02T13:11:36.782Z,49.60
2019-05-02T13:16:42.896Z,48.90
2019-05-02T13:22:04.083Z,44.90
2019-05-02T13:27:15.186Z,43.90
2019-05-02T13:32:21.771Z,45.20
2019-05-02T13:37:25.654Z,46.70
2019-05-02T13:42:29.360Z,48.20
2019-05-02T13:47:37.059Z,49.20
2019-05-02T13:52:55.037Z,56.50
2019-05-02T13:57:57.878Z,70.70
2019-05-02T14:03:02.882Z,85.70
2019-05-02T14:08:30.621Z,99.40
2019-05-02T14:13:31.844Z,99.90
2019-05-02T14:18:35.485Z,99.90
2019-05-02T14:23:42.094Z,99.90
2019-05-02T14:28:49.966Z,99.90
2019-05-02T14:34:12.234Z,99.90
2019-05-02T14:39:19.959Z,99.90
2019-05-02T14:44:59.817Z,99.90
2019-05-02T14:49:34.683Z,99.90
2019-05-02T14:54:43.746Z,99.90
2019-05-02T14:59:45.274Z,99.90
2019-05-02T15:04:49.865Z,99.90
2019-05-02T15:09:57.207Z,99.90
2019-05-02T15:15:02.513Z,99.90
2019-05-02T15:20:08.195Z,99.90
2019-05-02T15:25:17.784Z,99.90
2019-05-02T15:30:47.774Z,99.90
2019-05-02T15:35:47.273Z,99.90
2019-05-02T15:40:53.003Z,99.90
2019-05-02T15:45:56.552Z,99.90
2019-05-02T15:51:05.146Z,99.90
2019-05-02T15:56:15.677Z,99.90
2019-05-02T16:01:32.164Z,99.90
2019-05-02T16:06:35.916Z,99.90
2019-05-02T16:11:39.712Z,99.90
2019-05-02T16:16:45.371Z,99.90
2019-05-02T16:22:09.016Z,99.90
2019-05-02T16:27:16.354Z,99.90
2019-05-02T16:32:22.315Z,99.90
2019-05-02T16:37:26.107Z,99.90
2019-05-02T16:42:32.834Z,99.90
2019-05-02T16:47:38.202Z,99.90
2019-05-02T16:52:43.768Z,99.90
2019-05-02T16:57:51.895Z,99.90
2019-05-02T17:03:03.640Z,99.90
2019-05-02T17:08:26.788Z,99.90
2019-05-02T17:13:35.858Z,99.90
2019-05-02T17:18:38.523Z,99.90
2019-05-02T17:23:49.837Z,99.90
2019-05-02T17:28:47.664Z,99.90
2019-05-02T17:33:57.405Z,99.90
2019-05-02T17:39:06.752Z,99.90
2019-05-02T17:44:08.208Z,99.90
2019-05-02T17:49:14.854Z,99.90
2019-05-02T17:54:22.748Z,99.90
2019-05-02T17:59:28.229Z,99.90
2019-05-02T18:04:39.176Z,99.90
2019-05-02T18:09:42.798Z,99.90
2019-05-02T18:14:53.110Z,99.90
2019-05-02T18:19:56.694Z,99.90
2019-05-02T18:25:06.454Z,99.90
2019-05-02T18:30:12.735Z,99.90
2019-05-02T18:35:17.322Z,99.90
2019-05-02T18:40:27.715Z,99.90
2019-05-02T18:45:28.858Z,99.90
2019-05-02T18:50:36.769Z,99.90
2019-05-02T18:55:43.185Z,99.90
2019-05-02T19:00:46.925Z,99.90
2019-05-02T19:05:51.493Z,99.90
2019-05-02T19:11:05.920Z,99.90
2019-05-02T19:16:01.993Z,99.90
2019-05-02T19:21:06.381Z,99.90
2019-05-02T19:26:12.489Z,99.90
2019-05-02T19:31:15.578Z,99.90
2019-05-02T19:36:27.458Z,99.90
2019-05-02T19:41:29.287Z,99.90
2019-05-02T19:46:38.496Z,99.90
2019-05-02T19:51:39.909Z,99.90
2019-05-02T19:56:47.468Z,99.90
2019-05-02T20:01:52.189Z,99.90
2019-05-02T20:06:58.409Z,99.90
2019-05-02T20:12:06.056Z,99.90
2019-05-02T20:17:14.944Z,99.90
2019-05-02T20:22:19.397Z,99.90
2019-05-02T20:27:28.221Z,99.90
2019-05-02T20:32:32.277Z,99.90
2019-05-02T20:37:36.056Z,99.90
2019-05-02T20:42:41.780Z,99.90
2019-05-02T20:47:55.392Z,99.90
2019-05-02T20:52:59.104Z,99.90
2019-05-02T20:58:02.764Z,99.90
2019-05-02T21:03:09.119Z,99.90
2019-05-02T21:08:32.480Z,99.90
2019-05-02T21:13:36.011Z,99.90
2019-05-02T21:18:42.246Z,99.90
2019-05-02T21:23:48.498Z,99.90
2019-05-02T21:28:54.823Z,99.90
2019-05-02T21:34:02.595Z,99.90
2019-05-02T21:39:09.337Z,99.90
2019-05-02T21:44:13.287Z,99.90
2019-05-02T21:49:18.794Z,99.90
2019-05-02T21:54:26.844Z,99.90
2019-05-02T21:59:36.177Z,99.90
2019-05-02T22:04:47.497Z,99.90
2019-05-02T22:09:52.422Z,99.90
2019-05-02T22:14:56.074Z,99.90
2019-05-02T22:20:01.685Z,99.90
2019-05-02T22:25:15.779Z,99.90
2019-05-02T22:30:15.260Z,99.90
2019-05-02T22:35:19.227Z,99.90
2019-05-02T22:40:24.463Z,99.90
2019-05-02T22:45:28.200Z,99.90
2019-05-02T22:50:41.867Z,99.90
2019-05-02T22:55:45.728Z,99.90
2019-05-02T23:00:52.260Z,99.90
2019-05-02T23:06:01.789Z,99.90
2019-05-02T23:11:05.545Z,99.90
2019-05-02T23:16:09.264Z,99.90
2019-05-02T23:21:15.800Z,99.90
2019-05-02T23:26:31.684Z,99.90
2019-05-02T23:31:36.852Z,99.90
2019-05-02T23:36:42.071Z,99.90
2019-05-02T23:41:45.741Z,99.90
2019-05-02T23:46:52.082Z,99.90
2019-05-02T23:51:55.705Z,99.90
2019-05-02T23:56:59.345Z,99.90
